createdAt,value
2023-04-28T00:02:01.118Z,14.73
2023-04-28T00:04:27.848Z,12.50
2023-04-28T00:06:54.561Z,11.45
2023-04-28T00:09:21.257Z,13.82
2023-04-28T00:11:47.832Z,13.50
2023-04-28T00:14:14.483Z,13.85
2023-04-28T00:16:41.664Z,12.75
2023-04-28T00:19:08.273Z,13.27
2023-04-28T00:21:34.809Z,12.98
2023-04-28T00:24:01.488Z,14.18
2023-04-28T00:26:28.054Z,12.00
2023-04-28T00:28:54.566Z,12.85
2023-04-28T00:31:21.222Z,13.52
2023-04-28T00:33:47.741Z,13.63
2023-04-28T00:36:14.322Z,11.70
2023-04-28T00:38:41.015Z,14.38
2023-04-28T00:41:09.649Z,12.73
2023-04-28T00:43:46.516Z,15.85
2023-04-28T00:46:18.051Z,13.95
2023-04-28T00:48:44.560Z,12.13
2023-04-28T00:51:11.125Z,13.15
2023-04-28T00:53:37.893Z,13.00
2023-04-28T00:56:04.613Z,12.93
2023-04-28T00:58:31.191Z,10.75
2023-04-28T01:01:08.206Z,12.52
2023-04-28T01:03:36.088Z,12.60
2023-04-28T01:06:02.785Z,11.70
2023-04-28T01:08:30.659Z,11.95
2023-04-28T01:10:57.399Z,13.88
2023-04-28T01:13:23.961Z,13.15
2023-04-28T01:15:50.806Z,13.13
2023-04-28T01:18:17.365Z,13.65
2023-04-28T01:20:43.896Z,9.68
2023-04-28T01:23:14.084Z,12.75
2023-04-28T01:25:41.188Z,11.65
2023-04-28T01:28:07.872Z,12.63
2023-04-28T01:30:35.634Z,11.05
2023-04-28T01:33:02.685Z,10.85
2023-04-28T01:35:29.359Z,10.80
2023-04-28T01:37:55.986Z,11.68
2023-04-28T01:40:22.475Z,12.90
2023-04-28T01:42:49.004Z,12.27
2023-04-28T01:45:15.477Z,11.05
2023-04-28T01:47:41.989Z,10.48
2023-04-28T01:50:08.679Z,11.50
2023-04-28T01:52:35.155Z,11.95
2023-04-28T01:55:01.734Z,10.10
2023-04-28T01:57:29.236Z,12.23
2023-04-28T01:59:56.033Z,10.13
2023-04-28T02:02:22.691Z,10.18
2023-04-28T02:04:49.321Z,12.60
2023-04-28T02:07:15.934Z,10.23
2023-04-28T02:09:42.425Z,11.35
2023-04-28T02:12:08.929Z,11.57
2023-04-28T02:14:35.672Z,12.25
2023-04-28T02:17:03.399Z,11.57
2023-04-28T02:19:29.928Z,12.40
2023-04-28T02:21:56.499Z,10.63
2023-04-28T02:24:23.102Z,11.70
2023-04-28T02:26:49.759Z,13.02
2023-04-28T02:29:16.274Z,11.60
2023-04-28T02:31:42.814Z,14.10
2023-04-28T02:34:09.313Z,12.07
2023-04-28T02:36:36.102Z,11.75
2023-04-28T02:39:02.597Z,12.65
2023-04-28T02:41:31.190Z,12.18
2023-04-28T02:43:57.775Z,12.35
2023-04-28T02:46:24.333Z,10.98
2023-04-28T02:48:51.182Z,12.70
2023-04-28T02:51:17.692Z,14.30
2023-04-28T02:53:44.181Z,13.05
2023-04-28T02:56:10.731Z,14.63
2023-04-28T02:58:37.238Z,13.93
2023-04-28T03:01:03.787Z,12.55
2023-04-28T03:03:30.419Z,13.38
2023-04-28T03:05:57.177Z,13.10
2023-04-28T03:08:23.777Z,13.52
2023-04-28T03:10:50.247Z,14.32
2023-04-28T03:13:16.765Z,14.45
2023-04-28T03:15:43.245Z,13.02
2023-04-28T03:18:09.773Z,14.00
2023-04-28T03:20:36.669Z,13.85
2023-04-28T03:23:03.736Z,14.57
2023-04-28T03:25:30.359Z,15.77
2023-04-28T03:27:56.867Z,14.75
2023-04-28T03:30:23.370Z,16.38
2023-04-28T03:32:50.020Z,16.63
2023-04-28T03:35:16.640Z,15.70
2023-04-28T03:37:43.214Z,14.25
2023-04-28T03:40:10.433Z,15.57
2023-04-28T03:42:36.951Z,15.13
2023-04-28T03:45:03.878Z,15.38
2023-04-28T03:47:30.360Z,14.77
2023-04-28T03:49:59.171Z,13.48
2023-04-28T03:52:26.127Z,15.77
2023-04-28T03:54:52.648Z,16.02
2023-04-28T03:57:19.148Z,16.48
2023-04-28T03:59:45.734Z,14.02
2023-04-28T04:02:12.233Z,17.65
2023-04-28T04:04:38.885Z,15.27
2023-04-28T04:07:05.562Z,14.98
2023-04-28T04:09:32.054Z,16.05
2023-04-28T04:11:58.894Z,15.85
2023-04-28T04:14:25.558Z,17.02
2023-04-28T04:16:52.111Z,16.73
2023-04-28T04:19:18.697Z,15.15
2023-04-28T04:21:45.257Z,16.85
2023-04-28T04:24:12.018Z,15.27
2023-04-28T04:26:38.644Z,16.30
2023-04-28T04:29:05.168Z,16.38
2023-04-28T04:31:31.825Z,19.30
2023-04-28T04:33:58.461Z,20.20
2023-04-28T04:36:24.992Z,18.58
2023-04-28T04:38:53.236Z,18.75
2023-04-28T04:41:20.964Z,19.10
2023-04-28T04:43:47.516Z,20.02
2023-04-28T04:46:14.222Z,16.15
2023-04-28T04:48:40.798Z,21.88
2023-04-28T04:51:07.322Z,21.92
2023-04-28T04:53:33.791Z,16.42
2023-04-28T04:56:00.714Z,24.58
2023-04-28T04:58:27.260Z,20.95
2023-04-28T05:00:53.823Z,19.27
2023-04-28T05:03:20.836Z,19.15
2023-04-28T05:05:47.798Z,20.95
2023-04-28T05:08:14.383Z,18.83
2023-04-28T05:10:41.060Z,23.42
2023-04-28T05:13:07.547Z,23.15
2023-04-28T05:15:34.059Z,23.85
2023-04-28T05:18:00.675Z,24.48
2023-04-28T05:20:27.261Z,20.33
2023-04-28T05:22:53.755Z,24.35
2023-04-28T05:25:20.217Z,22.40
2023-04-28T05:27:47.075Z,22.95
2023-04-28T05:30:13.729Z,22.90
2023-04-28T05:32:40.243Z,20.88
2023-04-28T05:35:06.932Z,22.85
2023-04-28T05:37:33.482Z,22.38
2023-04-28T05:40:00.017Z,23.52
2023-04-28T05:42:26.959Z,23.23
2023-04-28T05:44:53.497Z,23.92
2023-04-28T05:47:19.985Z,25.38
2023-04-28T05:49:46.470Z,23.67
2023-04-28T05:52:12.997Z,21.30
2023-04-28T05:54:39.473Z,25.25
2023-04-28T05:57:06.008Z,24.67
2023-04-28T05:59:33.182Z,22.40
2023-04-28T06:01:59.760Z,25.35
2023-04-28T06:04:26.738Z,24.27
2023-04-28T06:06:53.372Z,24.55
2023-04-28T06:09:20.367Z,21.60
2023-04-28T06:11:46.975Z,27.23
2023-04-28T06:14:13.448Z,23.70
2023-04-28T06:16:39.981Z,26.58
2023-04-28T06:19:06.475Z,26.13
2023-04-28T06:21:33.767Z,26.23
2023-04-28T06:24:02.030Z,27.35
2023-04-28T06:26:28.809Z,26.90
2023-04-28T06:28:55.352Z,27.70
2023-04-28T06:31:21.908Z,27.73
2023-04-28T06:33:48.463Z,24.48
2023-04-28T06:36:16.942Z,25.63
2023-04-28T06:38:44.273Z,28.35
2023-04-28T06:41:11.503Z,28.15
2023-04-28T06:43:38.288Z,35.78
2023-04-28T06:46:04.858Z,28.95
2023-04-28T06:48:31.646Z,28.17
2023-04-28T06:50:58.166Z,27.35
2023-04-28T06:53:24.688Z,27.42
2023-04-28T06:55:51.662Z,28.52
2023-04-28T06:58:18.190Z,26.33
2023-04-28T07:00:44.724Z,24.90
2023-04-28T07:03:11.584Z,28.08
2023-04-28T07:05:38.176Z,24.30
2023-04-28T07:08:04.785Z,28.55
2023-04-28T07:10:31.357Z,28.00
2023-04-28T07:12:59.174Z,29.45
2023-04-28T07:15:25.729Z,28.10
2023-04-28T07:17:52.374Z,29.88
2023-04-28T07:20:18.967Z,28.42
2023-04-28T07:22:45.614Z,28.58
2023-04-28T07:25:12.285Z,28.30
2023-04-28T07:27:38.818Z,27.70
2023-04-28T07:30:18.516Z,28.45
2023-04-28T07:32:52.185Z,26.13
2023-04-28T07:35:18.800Z,26.48
2023-04-28T07:37:45.332Z,27.33
2023-04-28T07:40:11.947Z,28.17
2023-04-28T07:42:38.769Z,27.05
2023-04-28T07:45:05.726Z,27.05
2023-04-28T07:47:32.292Z,28.65
2023-04-28T07:50:00.801Z,25.75
2023-04-28T07:52:27.414Z,29.83
2023-04-28T07:54:54.105Z,27.48
2023-04-28T07:57:20.871Z,29.98
2023-04-28T07:59:47.361Z,28.42
2023-04-28T08:02:15.064Z,28.20
2023-04-28T08:04:41.782Z,28.85
2023-04-28T08:07:09.419Z,29.60
2023-04-28T08:09:36.246Z,29.90
2023-04-28T08:12:02.787Z,29.52
2023-04-28T08:14:29.577Z,28.83
2023-04-28T08:16:56.959Z,30.63
2023-04-28T08:19:24.047Z,32.10
2023-04-28T08:21:50.642Z,30.67
2023-04-28T08:24:17.327Z,29.35
2023-04-28T08:26:44.157Z,31.55
2023-04-28T08:29:10.635Z,26.67
2023-04-28T08:31:37.185Z,28.52
2023-04-28T08:34:03.832Z,31.17
2023-04-28T08:36:32.675Z,29.63
2023-04-28T08:39:01.154Z,26.08
2023-04-28T08:41:29.566Z,27.52
2023-04-28T08:43:56.443Z,28.73
2023-04-28T08:46:23.902Z,25.08
2023-04-28T08:48:51.192Z,26.38
2023-04-28T08:51:25.078Z,28.67
2023-04-28T08:56:22.447Z,24.63
2023-04-28T08:58:49.463Z,25.95
2023-04-28T09:01:16.108Z,26.13
2023-04-28T09:03:43.030Z,23.55
2023-04-28T09:06:09.646Z,24.38
2023-04-28T09:08:36.160Z,24.25
2023-04-28T09:11:09.677Z,28.88
2023-04-28T09:13:37.017Z,28.33
2023-04-28T09:16:04.000Z,24.50
2023-04-28T09:18:33.222Z,26.05
2023-04-28T09:21:03.490Z,28.08
2023-04-28T09:23:30.003Z,25.13
2023-04-28T09:26:07.831Z,26.95
2023-04-28T09:28:35.169Z,26.45
2023-04-28T09:31:02.212Z,28.02
2023-04-28T09:33:28.986Z,28.77
2023-04-28T09:35:55.665Z,31.30
2023-04-28T09:38:22.748Z,29.17
2023-04-28T09:40:53.604Z,30.65
2023-04-28T09:43:23.595Z,29.23
2023-04-28T09:45:50.142Z,28.33
2023-04-28T09:48:17.375Z,27.98
2023-04-28T09:50:43.890Z,28.48
2023-04-28T09:53:13.057Z,28.15
2023-04-28T09:55:42.491Z,26.27
2023-04-28T09:58:09.464Z,28.10
2023-04-28T10:00:36.244Z,29.00
2023-04-28T10:03:03.611Z,26.92
2023-04-28T10:05:31.908Z,29.52
2023-04-28T10:08:01.125Z,29.77
2023-04-28T10:10:28.393Z,29.55
2023-04-28T10:12:55.454Z,29.73
2023-04-28T10:15:22.751Z,28.23
2023-04-28T10:17:50.926Z,26.15
2023-04-28T10:20:17.612Z,28.13
2023-04-28T10:22:56.504Z,25.58
2023-04-28T10:25:26.132Z,31.77
2023-04-28T10:27:53.205Z,28.95
2023-04-28T10:30:27.402Z,28.08
2023-04-28T10:33:13.450Z,28.88
2023-04-28T10:35:42.896Z,25.90
2023-04-28T10:38:10.918Z,27.17
2023-04-28T10:40:41.723Z,25.15
2023-04-28T10:43:09.224Z,24.70
2023-04-28T10:45:58.037Z,26.48
2023-04-28T10:48:33.728Z,23.75
2023-04-28T10:51:03.531Z,26.88
2023-04-28T10:53:56.429Z,27.00
2023-04-28T10:56:26.902Z,27.55
2023-04-28T10:58:57.120Z,28.67
2023-04-28T11:01:34.923Z,28.83
2023-04-28T11:04:11.588Z,29.30
2023-04-28T11:06:40.381Z,29.73
2023-04-28T11:09:12.692Z,32.55
2023-04-28T11:11:40.198Z,29.08
2023-04-28T11:14:19.226Z,28.55
2023-04-28T11:16:52.202Z,29.17
2023-04-28T11:19:19.766Z,27.37
2023-04-28T11:21:47.062Z,26.15
2023-04-28T11:24:13.920Z,28.38
2023-04-28T11:26:40.853Z,28.38
2023-04-28T11:29:07.720Z,24.77
2023-04-28T11:31:34.375Z,27.33
2023-04-28T11:34:08.184Z,28.02
2023-04-28T11:36:36.116Z,28.67
2023-04-28T11:39:07.844Z,27.23
2023-04-28T11:41:38.636Z,28.33
2023-04-28T11:44:18.404Z,27.90
2023-04-28T11:46:55.169Z,28.65
2023-04-28T11:49:22.536Z,31.13
2023-04-28T11:51:50.395Z,29.83
2023-04-28T11:54:24.135Z,30.45
2023-04-28T11:56:51.406Z,29.95
2023-04-28T11:59:20.716Z,31.92
2023-04-28T12:01:50.075Z,30.65
2023-04-28T12:04:38.255Z,29.63
2023-04-28T12:07:11.924Z,30.95
2023-04-28T12:09:39.327Z,27.35
2023-04-28T12:12:07.032Z,32.47
2023-04-28T12:14:53.468Z,31.08
2023-04-28T12:17:32.970Z,30.27
2023-04-28T12:20:00.434Z,29.80
2023-04-28T12:22:27.188Z,28.88
2023-04-28T12:25:04.055Z,28.35
2023-04-28T12:27:32.340Z,29.08
2023-04-28T12:29:58.890Z,27.38
2023-04-28T12:32:39.041Z,27.08
2023-04-28T12:35:06.207Z,28.05
2023-04-28T12:37:32.995Z,28.92
2023-04-28T12:39:59.508Z,30.90
2023-04-28T17:26:56.997Z,1.77
2023-04-28T17:29:23.732Z,2.00
2023-04-28T17:31:50.320Z,1.45
2023-04-28T17:34:16.837Z,1.35
2023-04-28T17:36:43.413Z,1.33
2023-04-28T17:39:09.955Z,1.95
2023-04-28T17:41:36.611Z,1.85
2023-04-28T17:44:03.162Z,1.75
2023-04-28T17:46:29.745Z,1.90
2023-04-28T17:48:56.493Z,1.95
2023-04-28T17:51:23.053Z,1.83
2023-04-28T17:53:49.620Z,2.17
2023-04-28T17:56:16.420Z,1.95
2023-04-28T17:58:42.916Z,2.63
2023-04-28T18:01:09.502Z,1.70
2023-04-28T18:03:36.790Z,1.23
2023-04-28T18:06:04.878Z,1.67
2023-04-28T18:08:31.701Z,1.40
2023-04-28T18:10:58.324Z,4.05
2023-04-28T18:13:24.816Z,5.32
2023-04-28T18:15:51.782Z,3.60
2023-04-28T18:18:18.573Z,2.50
2023-04-28T18:20:45.313Z,1.77
2023-04-28T18:23:12.090Z,1.58
2023-04-28T18:25:38.752Z,1.60
2023-04-28T18:28:05.728Z,2.17
2023-04-28T18:30:38.049Z,1.90
2023-04-28T18:33:08.095Z,1.90
2023-04-28T18:35:35.523Z,1.42
2023-04-28T18:38:02.029Z,1.85
2023-04-28T18:40:39.111Z,2.20
2023-04-28T18:43:10.519Z,1.55
2023-04-28T18:45:41.185Z,1.52
2023-04-28T18:48:09.886Z,1.80
2023-04-28T18:50:37.001Z,1.48
2023-04-28T18:53:04.361Z,1.23
2023-04-28T18:55:33.687Z,1.58
2023-04-28T18:58:02.158Z,1.17
2023-04-28T19:00:28.966Z,1.20
2023-04-28T19:02:55.776Z,1.10
2023-04-28T19:05:22.536Z,1.40
2023-04-28T19:07:49.027Z,1.10
2023-04-28T19:10:15.801Z,1.00
2023-04-28T19:12:42.427Z,1.30
2023-04-28T19:15:08.974Z,1.52
2023-04-28T19:17:35.532Z,0.98
2023-04-28T19:20:02.079Z,2.05
2023-04-28T19:22:32.636Z,1.30
2023-04-28T19:24:59.773Z,1.90
2023-04-28T19:27:28.859Z,1.45
2023-04-28T19:29:55.485Z,1.15
2023-04-28T19:32:21.961Z,1.30
2023-04-28T19:34:49.248Z,1.20
2023-04-28T19:37:15.778Z,1.90
2023-04-28T19:39:42.320Z,1.30
2023-04-28T19:42:09.118Z,1.55
2023-04-28T19:44:36.311Z,1.60
2023-04-28T19:47:04.159Z,1.35
2023-04-28T19:49:31.124Z,1.33
2023-04-28T19:51:58.557Z,1.10
2023-04-28T19:54:25.234Z,1.63
2023-04-28T19:56:53.895Z,1.98
2023-04-28T19:59:20.414Z,2.40
2023-04-28T20:01:46.941Z,1.55
2023-04-28T20:04:14.697Z,1.20
2023-04-28T20:06:42.893Z,1.38
2023-04-28T20:09:10.276Z,1.30
2023-04-28T20:11:37.429Z,1.00
2023-04-28T20:14:04.020Z,1.52
2023-04-28T20:16:30.634Z,1.65
2023-04-28T20:18:57.132Z,1.73
2023-04-28T20:21:23.719Z,1.50
2023-04-28T20:23:50.867Z,1.15
2023-04-28T20:26:17.525Z,1.50
2023-04-28T20:28:45.362Z,1.50
2023-04-28T20:31:11.972Z,1.40
2023-04-28T20:33:38.505Z,1.67
2023-04-28T20:36:05.613Z,1.50
2023-04-28T20:38:33.085Z,2.38
2023-04-28T20:40:59.559Z,1.77
2023-04-28T20:43:28.300Z,1.67
2023-04-28T20:45:54.820Z,3.58
2023-04-28T20:48:21.405Z,4.97
2023-04-28T20:50:50.319Z,6.70
2023-04-28T20:53:16.797Z,28.23
2023-04-28T20:55:43.269Z,14.73
2023-04-28T20:58:09.777Z,31.98
2023-04-28T21:00:40.234Z,29.02
2023-04-28T21:03:07.831Z,24.02
2023-04-28T21:05:34.499Z,11.40
2023-04-28T21:08:00.996Z,36.60
2023-04-28T21:10:28.061Z,23.35
2023-04-28T21:12:54.526Z,12.13
2023-04-28T21:15:21.041Z,13.82
2023-04-28T21:17:47.603Z,10.05
2023-04-28T21:20:14.965Z,8.75
2023-04-28T21:22:41.499Z,3.17
2023-04-28T21:25:08.644Z,9.57
2023-04-28T21:27:35.155Z,10.93
2023-04-28T21:30:01.721Z,17.90
2023-04-28T21:32:28.378Z,8.65
2023-04-28T21:34:55.372Z,3.35
2023-04-28T21:37:22.376Z,6.03
2023-04-28T21:39:49.306Z,3.50
2023-04-28T21:42:15.934Z,3.25
2023-04-28T21:44:42.420Z,1.88
2023-04-28T21:47:09.039Z,1.50
2023-04-28T21:49:36.169Z,1.27
2023-04-28T21:52:02.666Z,1.40
2023-04-28T21:54:29.200Z,1.73
2023-04-28T21:56:55.683Z,1.80
2023-04-28T21:59:22.192Z,1.88
2023-04-28T22:01:49.827Z,3.03
2023-04-28T22:04:16.871Z,1.25
2023-04-28T22:06:44.817Z,1.45
2023-04-28T22:09:11.716Z,1.30
2023-04-28T22:11:38.193Z,1.50
2023-04-28T22:14:05.069Z,1.27
2023-04-28T22:16:31.691Z,1.38
2023-04-28T22:18:58.425Z,1.50
2023-04-28T22:21:25.572Z,1.70
2023-04-28T22:23:52.099Z,1.60
2023-04-28T22:26:19.220Z,1.30
2023-04-28T22:28:45.686Z,1.40
2023-04-28T22:31:12.797Z,1.45
2023-04-28T22:33:39.313Z,1.33
2023-04-28T22:36:06.096Z,1.33
2023-04-28T22:38:32.881Z,2.03
2023-04-28T22:40:59.516Z,1.63
2023-04-28T22:43:26.343Z,2.30
2023-04-28T22:45:53.524Z,1.25
2023-04-28T22:48:20.032Z,2.00
2023-04-28T22:50:46.549Z,1.52
2023-04-28T22:53:13.100Z,1.80
2023-04-28T22:55:39.637Z,1.52
2023-04-28T22:58:06.820Z,1.60
2023-04-28T23:00:33.973Z,1.73
2023-04-28T23:03:00.805Z,2.20
2023-04-28T23:05:27.444Z,1.40
2023-04-28T23:07:53.955Z,1.92
2023-04-28T23:10:20.874Z,1.80
2023-04-28T23:12:47.564Z,2.08
2023-04-28T23:15:14.183Z,2.53
2023-04-28T23:17:41.556Z,1.70
2023-04-28T23:20:08.308Z,2.30
2023-04-28T23:22:34.907Z,1.65
2023-04-28T23:25:01.406Z,1.90
2023-04-28T23:27:27.956Z,2.00
2023-04-28T23:29:54.504Z,2.15
2023-04-28T23:32:21.028Z,2.38
2023-04-28T23:34:48.128Z,1.98
2023-04-28T23:37:14.679Z,1.75
2023-04-28T23:39:41.192Z,2.55
2023-04-28T23:42:07.700Z,1.83
2023-04-28T23:44:34.282Z,1.60
2023-04-28T23:47:00.988Z,2.15
2023-04-28T23:49:27.508Z,2.05
2023-04-28T23:51:54.567Z,2.33
2023-04-28T23:54:21.082Z,2.35
2023-04-28T23:56:48.003Z,1.92
2023-04-28T23:59:14.517Z,2.92
